sensor_id;sensor_type;location;lat;lon;timestamp;pressure;altitude;pressure_sealevel;temperature;humidity
34979;BME280;21185;50.978;13.720;2023-03-03T00:03:50;98710.22;;;1.82;67.79
34979;BME280;21185;50.978;13.720;2023-03-03T00:08:52;98703.56;;;1.80;68.15
34979;BME280;21185;50.978;13.720;2023-03-03T00:13:55;98700.91;;;1.81;68.44
34979;BME280;21185;50.978;13.720;2023-03-03T00:18:57;98716.34;;;1.80;68.81
34979;BME280;21185;50.978;13.720;2023-03-03T00:24:22;98720.44;;;1.82;68.65
34979;BME280;21185;50.978;13.720;2023-03-03T00:29:36;98713.59;;;1.83;68.69
34979;BME280;21185;50.978;13.720;2023-03-03T00:34:40;98721.47;;;1.80;69.04
34979;BME280;21185;50.978;13.720;2023-03-03T00:39:42;98715.72;;;1.76;69.26
34979;BME280;21185;50.978;13.720;2023-03-03T00:44:45;98714.25;;;1.72;69.65
34979;BME280;21185;50.978;13.720;2023-03-03T00:49:47;98714.47;;;1.69;69.80
34979;BME280;21185;50.978;13.720;2023-03-03T00:54:49;98718.47;;;1.73;69.79
34979;BME280;21185;50.978;13.720;2023-03-03T00:59:51;98720.19;;;1.73;70.01
34979;BME280;21185;50.978;13.720;2023-03-03T01:04:54;98717.75;;;1.71;70.12
34979;BME280;21185;50.978;13.720;2023-03-03T01:09:58;98720.09;;;1.74;70.04
34979;BME280;21185;50.978;13.720;2023-03-03T01:15:01;98717.34;;;1.77;69.96
34979;BME280;21185;50.978;13.720;2023-03-03T01:20:03;98727.59;;;1.77;69.84
34979;BME280;21185;50.978;13.720;2023-03-03T01:25:06;98730.16;;;1.77;69.94
34979;BME280;21185;50.978;13.720;2023-03-03T01:30:09;98731.97;;;1.75;69.85
34979;BME280;21185;50.978;13.720;2023-03-03T01:35:11;98730.53;;;1.71;69.88
34979;BME280;21185;50.978;13.720;2023-03-03T01:40:16;98736.56;;;1.70;69.84
34979;BME280;21185;50.978;13.720;2023-03-03T01:45:25;98732.38;;;1.69;70.00
34979;BME280;21185;50.978;13.720;2023-03-03T01:50:56;98731.53;;;1.69;70.18
34979;BME280;21185;50.978;13.720;2023-03-03T01:56:00;98725.06;;;1.63;70.08
34979;BME280;21185;50.978;13.720;2023-03-03T02:01:07;98712.47;;;1.60;69.92
34979;BME280;21185;50.978;13.720;2023-03-03T02:06:15;98716.75;;;1.59;70.18
34979;BME280;21185;50.978;13.720;2023-03-03T02:11:20;98714.13;;;1.61;70.04
34979;BME280;21185;50.978;13.720;2023-03-03T02:16:24;98699.69;;;1.60;70.05
34979;BME280;21185;50.978;13.720;2023-03-03T02:21:26;98703.34;;;1.56;70.20
34979;BME280;21185;50.978;13.720;2023-03-03T02:26:30;98705.38;;;1.51;70.00
34979;BME280;21185;50.978;13.720;2023-03-03T02:31:38;98700.34;;;1.49;70.13
34979;BME280;21185;50.978;13.720;2023-03-03T02:36:41;98714.25;;;1.45;70.24
34979;BME280;21185;50.978;13.720;2023-03-03T02:46:56;98704.28;;;1.41;70.40
34979;BME280;21185;50.978;13.720;2023-03-03T02:52:00;98701.09;;;1.37;70.49
34979;BME280;21185;50.978;13.720;2023-03-03T02:57:03;98717.25;;;1.38;70.50
34979;BME280;21185;50.978;13.720;2023-03-03T03:02:05;98722.38;;;1.38;70.59
34979;BME280;21185;50.978;13.720;2023-03-03T03:07:09;98713.78;;;1.39;70.56
34979;BME280;21185;50.978;13.720;2023-03-03T03:12:12;98712.63;;;1.30;70.44
34979;BME280;21185;50.978;13.720;2023-03-03T03:17:17;98730.69;;;1.27;70.77
34979;BME280;21185;50.978;13.720;2023-03-03T03:22:20;98725.59;;;1.27;70.85
34979;BME280;21185;50.978;13.720;2023-03-03T03:27:23;98724.94;;;1.23;70.71
34979;BME280;21185;50.978;13.720;2023-03-03T03:32:26;98725.88;;;1.22;70.59
34979;BME280;21185;50.978;13.720;2023-03-03T03:37:29;98725.97;;;1.21;70.60
34979;BME280;21185;50.978;13.720;2023-03-03T03:42:31;98729.53;;;1.18;70.53
34979;BME280;21185;50.978;13.720;2023-03-03T03:47:33;98725.13;;;1.20;70.63
34979;BME280;21185;50.978;13.720;2023-03-03T03:52:35;98720.75;;;1.22;70.39
34979;BME280;21185;50.978;13.720;2023-03-03T03:57:38;98707.25;;;1.20;70.45
34979;BME280;21185;50.978;13.720;2023-03-03T04:02:40;98720.22;;;1.17;70.45
34979;BME280;21185;50.978;13.720;2023-03-03T04:07:47;98736.66;;;1.13;70.30
34979;BME280;21185;50.978;13.720;2023-03-03T04:12:51;98746.13;;;1.11;70.41
34979;BME280;21185;50.978;13.720;2023-03-03T04:17:54;98736.81;;;1.10;70.52
34979;BME280;21185;50.978;13.720;2023-03-03T04:22:56;98741.94;;;1.10;70.66
34979;BME280;21185;50.978;13.720;2023-03-03T04:27:59;98752.16;;;1.10;70.49
34979;BME280;21185;50.978;13.720;2023-03-03T04:33:01;98746.31;;;1.08;70.39
34979;BME280;21185;50.978;13.720;2023-03-03T04:38:04;98753.44;;;1.03;70.51
34979;BME280;21185;50.978;13.720;2023-03-03T04:43:08;98761.19;;;1.02;70.62
34979;BME280;21185;50.978;13.720;2023-03-03T04:48:11;98763.75;;;1.02;70.50
34979;BME280;21185;50.978;13.720;2023-03-03T04:53:15;98765.31;;;1.04;70.46
34979;BME280;21185;50.978;13.720;2023-03-03T04:58:18;98772.06;;;1.05;70.48
34979;BME280;21185;50.978;13.720;2023-03-03T05:03:21;98772.88;;;1.06;70.57
34979;BME280;21185;50.978;13.720;2023-03-03T05:08:24;98769.22;;;1.10;70.43
34979;BME280;21185;50.978;13.720;2023-03-03T05:13:27;98783.56;;;1.12;70.45
34979;BME280;21185;50.978;13.720;2023-03-03T05:18:29;98775.91;;;1.12;70.45
34979;BME280;21185;50.978;13.720;2023-03-03T05:23:31;98781.38;;;1.06;70.33
34979;BME280;21185;50.978;13.720;2023-03-03T05:28:33;98775.34;;;1.07;70.82
34979;BME280;21185;50.978;13.720;2023-03-03T05:33:35;98771.41;;;1.02;70.74
34979;BME280;21185;50.978;13.720;2023-03-03T05:38:37;98776.72;;;0.98;70.92
34979;BME280;21185;50.978;13.720;2023-03-03T05:43:39;98775.06;;;0.97;71.07
34979;BME280;21185;50.978;13.720;2023-03-03T05:48:41;98762.38;;;0.96;71.09
34979;BME280;21185;50.978;13.720;2023-03-03T05:53:44;98784.56;;;0.95;71.39
34979;BME280;21185;50.978;13.720;2023-03-03T05:58:46;98782.81;;;0.96;71.43
34979;BME280;21185;50.978;13.720;2023-03-03T06:03:48;98775.25;;;0.94;71.56
34979;BME280;21185;50.978;13.720;2023-03-03T06:08:50;98770.22;;;0.93;71.70
34979;BME280;21185;50.978;13.720;2023-03-03T06:13:57;98772.88;;;0.91;72.03
34979;BME280;21185;50.978;13.720;2023-03-03T06:18:59;98775.16;;;0.96;71.91
34979;BME280;21185;50.978;13.720;2023-03-03T06:24:02;98771.88;;;0.94;72.06
34979;BME280;21185;50.978;13.720;2023-03-03T06:29:04;98771.88;;;0.94;72.24
34979;BME280;21185;50.978;13.720;2023-03-03T06:34:07;98774.16;;;0.98;72.37
34979;BME280;21185;50.978;13.720;2023-03-03T06:39:09;98773.06;;;1.03;72.31
34979;BME280;21185;50.978;13.720;2023-03-03T06:44:11;98777.81;;;1.09;72.33
34979;BME280;21185;50.978;13.720;2023-03-03T06:49:13;98797.16;;;1.13;72.20
34979;BME280;21185;50.978;13.720;2023-03-03T06:54:18;98797.06;;;1.14;72.22
34979;BME280;21185;50.978;13.720;2023-03-03T06:59:21;98804.66;;;1.16;72.07
34979;BME280;21185;50.978;13.720;2023-03-03T07:04:31;98796.25;;;1.14;72.10
34979;BME280;21185;50.978;13.720;2023-03-03T07:09:34;98807.31;;;1.14;72.09
34979;BME280;21185;50.978;13.720;2023-03-03T07:14:41;98825.00;;;1.17;72.23
34979;BME280;21185;50.978;13.720;2023-03-03T07:19:44;98824.09;;;1.18;72.11
34979;BME280;21185;50.978;13.720;2023-03-03T07:24:52;98820.63;;;1.19;72.19
34979;BME280;21185;50.978;13.720;2023-03-03T07:30:21;98823.38;;;1.16;72.60
34979;BME280;21185;50.978;13.720;2023-03-03T07:35:40;98818.16;;;1.18;72.57
34979;BME280;21185;50.978;13.720;2023-03-03T07:40:49;98835.78;;;1.22;72.68
34979;BME280;21185;50.978;13.720;2023-03-03T07:46:02;98845.19;;;1.22;72.76
34979;BME280;21185;50.978;13.720;2023-03-03T07:51:28;98849.31;;;1.24;72.95
34979;BME280;21185;50.978;13.720;2023-03-03T07:56:33;98858.44;;;1.28;72.77
34979;BME280;21185;50.978;13.720;2023-03-03T08:01:43;98852.97;;;1.35;72.65
34979;BME280;21185;50.978;13.720;2023-03-03T08:06:54;98836.72;;;1.36;72.69
34979;BME280;21185;50.978;13.720;2023-03-03T08:12:01;98851.22;;;1.35;72.77
34979;BME280;21185;50.978;13.720;2023-03-03T08:17:22;98852.06;;;1.36;73.00
34979;BME280;21185;50.978;13.720;2023-03-03T08:22:33;98851.88;;;1.39;72.83
34979;BME280;21185;50.978;13.720;2023-03-03T08:27:38;98850.03;;;1.41;72.99
34979;BME280;21185;50.978;13.720;2023-03-03T08:32:40;98839.81;;;1.41;73.00
34979;BME280;21185;50.978;13.720;2023-03-03T08:37:42;98843.94;;;1.43;73.19
34979;BME280;21185;50.978;13.720;2023-03-03T08:42:44;98846.03;;;1.51;72.92
34979;BME280;21185;50.978;13.720;2023-03-03T08:47:46;98846.03;;;1.51;73.00
34979;BME280;21185;50.978;13.720;2023-03-03T08:52:48;98851.88;;;1.53;72.87
34979;BME280;21185;50.978;13.720;2023-03-03T08:57:50;98867.03;;;1.56;72.91
34979;BME280;21185;50.978;13.720;2023-03-03T09:02:53;98857.53;;;1.58;72.82
34979;BME280;21185;50.978;13.720;2023-03-03T09:07:56;98854.88;;;1.59;72.96
34979;BME280;21185;50.978;13.720;2023-03-03T09:13:06;98852.50;;;1.56;73.16
34979;BME280;21185;50.978;13.720;2023-03-03T09:18:21;98861.19;;;1.54;73.41
34979;BME280;21185;50.978;13.720;2023-03-03T09:23:33;98872.25;;;1.54;73.66
34979;BME280;21185;50.978;13.720;2023-03-03T09:28:36;98878.00;;;1.58;73.35
34979;BME280;21185;50.978;13.720;2023-03-03T09:33:43;98883.94;;;1.58;73.57
34979;BME280;21185;50.978;13.720;2023-03-03T09:38:46;98880.38;;;1.61;73.64
34979;BME280;21185;50.978;13.720;2023-03-03T09:49:58;98894.81;;;1.62;73.75
34979;BME280;21185;50.978;13.720;2023-03-03T10:11:49;98900.47;;;1.67;73.45
34979;BME280;21185;50.978;13.720;2023-03-03T10:21:49;98905.69;;;1.66;73.60
34979;BME280;21185;50.978;13.720;2023-03-03T10:27:04;98915.75;;;1.69;73.61
34979;BME280;21185;50.978;13.720;2023-03-03T10:32:29;98926.63;;;1.72;73.69
34979;BME280;21185;50.978;13.720;2023-03-03T10:43:02;98912.63;;;1.78;73.51
34979;BME280;21185;50.978;13.720;2023-03-03T10:48:12;98907.25;;;1.82;73.37
34979;BME280;21185;50.978;13.720;2023-03-03T10:53:45;98910.34;;;1.87;73.57
34979;BME280;21185;50.978;13.720;2023-03-03T11:09:14;98910.53;;;1.84;73.82
34979;BME280;21185;50.978;13.720;2023-03-03T11:14:38;98917.94;;;1.89;73.63
34979;BME280;21185;50.978;13.720;2023-03-03T11:20:20;98913.63;;;1.89;73.55
34979;BME280;21185;50.978;13.720;2023-03-03T11:26:23;98911.81;;;1.91;73.62
34979;BME280;21185;50.978;13.720;2023-03-03T11:31:22;98904.03;;;1.93;73.76
34979;BME280;21185;50.978;13.720;2023-03-03T11:36:36;98905.03;;;1.90;73.81
34979;BME280;21185;50.978;13.720;2023-03-03T11:42:05;98894.25;;;2.00;73.87
34979;BME280;21185;50.978;13.720;2023-03-03T12:02:44;98884.56;;;2.05;73.76
34979;BME280;21185;50.978;13.720;2023-03-03T12:13:46;98877.59;;;2.07;73.78
34979;BME280;21185;50.978;13.720;2023-03-03T12:18:54;98878.31;;;2.09;73.87
34979;BME280;21185;50.978;13.720;2023-03-03T12:24:38;98879.69;;;2.14;73.62
34979;BME280;21185;50.978;13.720;2023-03-03T12:40:34;98869.91;;;2.07;73.94
34979;BME280;21185;50.978;13.720;2023-03-03T12:46:04;98868.09;;;2.09;73.77
34979;BME280;21185;50.978;13.720;2023-03-03T12:51:11;98856.00;;;2.11;73.98
34979;BME280;21185;50.978;13.720;2023-03-03T12:57:27;98853.16;;;2.15;73.76
34979;BME280;21185;50.978;13.720;2023-03-03T13:07:42;98847.22;;;2.15;73.83
34979;BME280;21185;50.978;13.720;2023-03-03T13:12:55;98846.84;;;2.21;73.73
34979;BME280;21185;50.978;13.720;2023-03-03T13:18:33;98843.38;;;2.22;73.78
34979;BME280;21185;50.978;13.720;2023-03-03T13:23:50;98842.88;;;2.30;73.88
34979;BME280;21185;50.978;13.720;2023-03-03T13:29:08;98852.94;;;2.33;73.84
34979;BME280;21185;50.978;13.720;2023-03-03T13:39:45;98842.50;;;2.36;73.63
34979;BME280;21185;50.978;13.720;2023-03-03T13:44:51;98844.34;;;2.34;73.38
34979;BME280;21185;50.978;13.720;2023-03-03T13:55:21;98830.72;;;2.33;73.38
34979;BME280;21185;50.978;13.720;2023-03-03T14:00:53;98828.44;;;2.28;73.24
34979;BME280;21185;50.978;13.720;2023-03-03T14:06:08;98824.97;;;2.30;73.23
34979;BME280;21185;50.978;13.720;2023-03-03T14:16:52;98817.19;;;2.31;72.92
34979;BME280;21185;50.978;13.720;2023-03-03T14:22:17;98812.59;;;2.36;73.11
34979;BME280;21185;50.978;13.720;2023-03-03T14:27:26;98811.88;;;2.34;72.93
34979;BME280;21185;50.978;13.720;2023-03-03T14:32:29;98793.03;;;2.35;72.77
34979;BME280;21185;50.978;13.720;2023-03-03T14:37:46;98795.78;;;2.32;72.74
34979;BME280;21185;50.978;13.720;2023-03-03T14:47:56;98794.66;;;2.36;72.83
34979;BME280;21185;50.978;13.720;2023-03-03T14:53:13;98790.75;;;2.31;72.50
34979;BME280;21185;50.978;13.720;2023-03-03T15:03:28;98785.19;;;2.24;72.52
34979;BME280;21185;50.978;13.720;2023-03-03T15:08:32;98783.56;;;2.23;72.48
34979;BME280;21185;50.978;13.720;2023-03-03T15:13:34;98797.38;;;2.20;72.29
34979;BME280;21185;50.978;13.720;2023-03-03T15:19:23;98793.06;;;2.21;72.26
34979;BME280;21185;50.978;13.720;2023-03-03T15:24:41;98787.97;;;2.21;72.16
34979;BME280;21185;50.978;13.720;2023-03-03T15:30:29;98776.16;;;2.18;72.24
34979;BME280;21185;50.978;13.720;2023-03-03T15:35:44;98779.84;;;2.14;72.18
34979;BME280;21185;50.978;13.720;2023-03-03T15:41:13;98786.91;;;2.11;72.07
34979;BME280;21185;50.978;13.720;2023-03-03T15:56:50;98779.41;;;2.08;72.04
34979;BME280;21185;50.978;13.720;2023-03-03T16:12:58;98786.47;;;2.04;71.88
34979;BME280;21185;50.978;13.720;2023-03-03T16:29:03;98794.09;;;1.91;72.05
34979;BME280;21185;50.978;13.720;2023-03-03T16:34:35;98795.19;;;1.87;71.93
34979;BME280;21185;50.978;13.720;2023-03-03T16:55:34;98792.50;;;1.62;72.12
34979;BME280;21185;50.978;13.720;2023-03-03T17:00:50;98797.50;;;1.63;72.20
34979;BME280;21185;50.978;13.720;2023-03-03T17:12:01;98793.03;;;1.67;72.04
34979;BME280;21185;50.978;13.720;2023-03-03T17:28:04;98800.16;;;1.62;71.90
34979;BME280;21185;50.978;13.720;2023-03-03T17:55:02;98805.09;;;1.51;72.25
34979;BME280;21185;50.978;13.720;2023-03-03T18:06:03;98810.41;;;1.48;72.32
34979;BME280;21185;50.978;13.720;2023-03-03T18:22:06;98820.63;;;1.48;72.56
34979;BME280;21185;50.978;13.720;2023-03-03T18:27:33;98806.94;;;1.49;72.46
34979;BME280;21185;50.978;13.720;2023-03-03T18:37:56;98819.00;;;1.47;72.51
34979;BME280;21185;50.978;13.720;2023-03-03T18:42:58;98812.97;;;1.48;72.59
34979;BME280;21185;50.978;13.720;2023-03-03T18:48:47;98824.84;;;1.49;72.62
34979;BME280;21185;50.978;13.720;2023-03-03T18:54:23;98830.50;;;1.54;72.73
34979;BME280;21185;50.978;13.720;2023-03-03T19:04:39;98821.72;;;1.58;72.50
34979;BME280;21185;50.978;13.720;2023-03-03T19:09:51;98815.69;;;1.59;72.55
34979;BME280;21185;50.978;13.720;2023-03-03T19:14:58;98818.25;;;1.59;72.59
34979;BME280;21185;50.978;13.720;2023-03-03T19:20:20;98818.25;;;1.59;72.58
34979;BME280;21185;50.978;13.720;2023-03-03T19:25:28;98815.97;;;1.54;72.73
34979;BME280;21185;50.978;13.720;2023-03-03T19:31:00;98823.00;;;1.51;72.83
34979;BME280;21185;50.978;13.720;2023-03-03T19:36:10;98821.38;;;1.50;72.94
34979;BME280;21185;50.978;13.720;2023-03-03T19:41:26;98816.16;;;1.51;72.90
34979;BME280;21185;50.978;13.720;2023-03-03T19:57:35;98819.00;;;1.47;73.27
34979;BME280;21185;50.978;13.720;2023-03-03T20:13:34;98818.44;;;1.56;73.20
34979;BME280;21185;50.978;13.720;2023-03-03T20:18:52;98819.34;;;1.55;73.19
34979;BME280;21185;50.978;13.720;2023-03-03T20:24:40;98808.22;;;1.56;73.19
34979;BME280;21185;50.978;13.720;2023-03-03T20:30:05;98798.81;;;1.56;73.32
34979;BME280;21185;50.978;13.720;2023-03-03T20:35:21;98799.63;;;1.57;73.30
34979;BME280;21185;50.978;13.720;2023-03-03T20:40:35;98798.81;;;1.56;73.39
34979;BME280;21185;50.978;13.720;2023-03-03T20:46:16;98789.50;;;1.55;73.61
34979;BME280;21185;50.978;13.720;2023-03-03T20:57:20;98785.28;;;1.54;73.93
34979;BME280;21185;50.978;13.720;2023-03-03T21:02:29;98789.50;;;1.55;73.94
34979;BME280;21185;50.978;13.720;2023-03-03T21:07:55;98777.44;;;1.57;73.90
34979;BME280;21185;50.978;13.720;2023-03-03T21:13:33;98772.41;;;1.56;74.08
34979;BME280;21185;50.978;13.720;2023-03-03T21:18:38;98770.66;;;1.56;73.91
34979;BME280;21185;50.978;13.720;2023-03-03T21:23:40;98759.81;;;1.53;73.98
34979;BME280;21185;50.978;13.720;2023-03-03T21:28:58;98757.25;;;1.53;74.28
34979;BME280;21185;50.978;13.720;2023-03-03T21:34:17;98754.69;;;1.53;74.26
34979;BME280;21185;50.978;13.720;2023-03-03T21:39:44;98748.66;;;1.54;74.17
34979;BME280;21185;50.978;13.720;2023-03-03T21:44:48;98755.41;;;1.55;74.29
34979;BME280;21185;50.978;13.720;2023-03-03T21:49:51;98753.78;;;1.54;74.36
34979;BME280;21185;50.978;13.720;2023-03-03T21:54:53;98750.22;;;1.56;74.40
34979;BME280;21185;50.978;13.720;2023-03-03T21:59:55;98754.41;;;1.57;74.42
34979;BME280;21185;50.978;13.720;2023-03-03T22:04:57;98755.22;;;1.58;74.43
34979;BME280;21185;50.978;13.720;2023-03-03T22:09:59;98754.50;;;1.56;74.46
34979;BME280;21185;50.978;13.720;2023-03-03T22:15:01;98739.88;;;1.58;74.42
34979;BME280;21185;50.978;13.720;2023-03-03T22:20:03;98746.63;;;1.59;74.50
34979;BME280;21185;50.978;13.720;2023-03-03T22:25:05;98739.88;;;1.58;74.68
34979;BME280;21185;50.978;13.720;2023-03-03T22:30:08;98735.69;;;1.57;74.72
34979;BME280;21185;50.978;13.720;2023-03-03T22:35:10;98734.94;;;1.55;74.89
34979;BME280;21185;50.978;13.720;2023-03-03T22:40:12;98726.19;;;1.59;75.00
34979;BME280;21185;50.978;13.720;2023-03-03T22:45:14;98733.84;;;1.59;74.90
34979;BME280;21185;50.978;13.720;2023-03-03T22:50:16;98726.19;;;1.59;74.97
34979;BME280;21185;50.978;13.720;2023-03-03T22:55:21;98721.78;;;1.61;74.97
34979;BME280;21185;50.978;13.720;2023-03-03T23:00:23;98720.78;;;1.63;74.88
34979;BME280;21185;50.978;13.720;2023-03-03T23:05:25;98715.75;;;1.62;74.81
34979;BME280;21185;50.978;13.720;2023-03-03T23:10:27;98709.00;;;1.61;74.94
34979;BME280;21185;50.978;13.720;2023-03-03T23:15:29;98704.69;;;1.61;75.09
34979;BME280;21185;50.978;13.720;2023-03-03T23:20:31;98686.69;;;1.63;75.01
34979;BME280;21185;50.978;13.720;2023-03-03T23:25:33;98698.56;;;1.64;74.97
34979;BME280;21185;50.978;13.720;2023-03-03T23:30:35;98692.44;;;1.67;74.91
34979;BME280;21185;50.978;13.720;2023-03-03T23:35:40;98682.22;;;1.67;74.96
34979;BME280;21185;50.978;13.720;2023-03-03T23:40:42;98683.84;;;1.68;75.03
34979;BME280;21185;50.978;13.720;2023-03-03T23:45:44;98672.81;;;1.67;74.99
34979;BME280;21185;50.978;13.720;2023-03-03T23:50:46;98674.72;;;1.63;74.85
34979;BME280;21185;50.978;13.720;2023-03-03T23:55:48;98673.81;;;1.65;75.08
